Alexandria, New Hampshire
Current Conditions -  °F | °C
As of 8:35 AM on Thursday 27 Nov 2014 (Local Time) from K1P1 Reporting Station
Overcast Overcast  
Wind Chill: 22°   Ceiling: 6500
Heat Index: 30°   Visibility: 10mi
Dew Point: 27°   Wind: 9mph
Humidity: 89%   Direction: 280°W
Pressure: 29.88"   Gusts: NA
Location:  43.6264°N, 71.7826°W
Report Text: K1P1 271335Z AUTO 28008KT 10SM OVC065 M01/M03 A2988 RMK AO2 T10111027
Loading
Personal Weather Stations






























Interactive Weather Map New forecast layout! Learn more

10-Day Weather Forecast

Advertisements
Track Severe Weather on mobile